Mys Shmidta, Russia
Current Conditions -  °F | °C
As of 7:55 AM on Friday 24 Oct 2014 (Local Time) from PALU Reporting Station
Broken Clouds Broken Clouds  
Wind Chill:   Ceiling: 13000
Heat Index: 19°   Visibility: 10mi
Dew Point: 14°   Wind: 12mph
Humidity: 81%   Direction: 120°ESE
Pressure: 29.7"   Gusts: NA
Location:  68.93°N, 179.5°W
Report Text: PALU 231955Z AUTO 12010KT 10SM BKN130 M07/M10 A2970 RMK AO2 SLP057 T10731100
Loading
Personal Weather Stations






























Interactive Weather Map
Tropical Storm Tracking
New forecast layout! Learn more

10-Day Weather Forecast

Advertisements
Track Severe Weather on mobile